createdAt,value
2017-11-26T00:00:12.514Z,2.70
2017-11-26T00:02:41.611Z,2.60
2017-11-26T00:05:09.901Z,2.60
2017-11-26T00:07:38.275Z,2.60
2017-11-26T00:10:07.417Z,2.60
2017-11-26T00:12:36.032Z,2.60
2017-11-26T00:15:05.174Z,2.50
2017-11-26T00:17:33.486Z,2.50
2017-11-26T00:20:01.794Z,2.50
2017-11-26T00:22:30.129Z,2.50
2017-11-26T00:24:58.436Z,2.60
2017-11-26T00:27:26.844Z,2.60
2017-11-26T00:29:55.945Z,2.60
2017-11-26T00:32:24.279Z,2.60
2017-11-26T00:34:52.761Z,2.60
2017-11-26T00:37:21.086Z,2.50
2017-11-26T00:39:49.391Z,2.50
2017-11-26T00:42:17.707Z,2.50
2017-11-26T00:44:46.012Z,2.40
2017-11-26T00:47:14.327Z,2.40
2017-11-26T00:49:42.650Z,2.40
2017-11-26T00:52:10.939Z,2.40
2017-11-26T00:54:39.257Z,2.40
2017-11-26T00:57:08.485Z,2.30
2017-11-26T00:59:36.776Z,2.30
2017-11-26T01:02:05.075Z,2.30
2017-11-26T01:04:33.397Z,2.30
2017-11-26T01:07:01.677Z,2.30
2017-11-26T01:09:29.997Z,2.20
2017-11-26T01:11:59.087Z,2.20
2017-11-26T01:14:27.416Z,2.10
2017-11-26T01:16:56.472Z,2.10
2017-11-26T01:19:24.818Z,2.10
2017-11-26T01:21:53.123Z,2.10
2017-11-26T01:24:21.506Z,2.10
2017-11-26T01:26:49.818Z,2.00
2017-11-26T01:29:18.109Z,2.00
2017-11-26T01:31:46.432Z,2.00
2017-11-26T01:34:15.529Z,2.00
2017-11-26T01:36:43.818Z,2.00
2017-11-26T01:39:12.135Z,2.00
2017-11-26T01:41:40.434Z,2.00
2017-11-26T01:44:08.737Z,2.00
2017-11-26T01:46:38.710Z,2.10
2017-11-26T01:49:07.818Z,2.10
2017-11-26T01:51:37.144Z,2.10
2017-11-26T01:54:05.459Z,2.10
2017-11-26T01:56:33.830Z,2.10
2017-11-26T01:59:02.161Z,2.20
2017-11-26T02:01:30.538Z,2.20
2017-11-26T02:03:59.631Z,2.20
2017-11-26T02:06:27.928Z,2.10
2017-11-26T02:08:56.215Z,2.20
2017-11-26T02:11:24.574Z,2.20
2017-11-26T02:13:52.895Z,2.20
2017-11-26T02:16:21.251Z,2.30
2017-11-26T02:18:49.734Z,2.30
2017-11-26T02:21:18.042Z,2.40
2017-11-26T02:23:47.109Z,2.40
2017-11-26T02:26:15.446Z,2.40
2017-11-26T02:28:44.063Z,2.40
2017-11-26T02:34:32.678Z,2.40
2017-11-26T02:37:01.054Z,2.40
2017-11-26T02:39:30.129Z,2.40
2017-11-26T02:41:58.440Z,2.40
2017-11-26T02:44:26.764Z,2.40
2017-11-26T02:46:55.106Z,2.40
2017-11-26T02:49:23.378Z,2.50
2017-11-26T02:51:51.712Z,2.50
2017-11-26T02:54:20.032Z,2.50
2017-11-26T02:56:49.100Z,2.50
2017-11-26T02:59:17.418Z,2.50
2017-11-26T03:01:45.757Z,2.50
2017-11-26T03:04:14.072Z,2.50
2017-11-26T03:06:43.142Z,2.50
2017-11-26T03:09:11.469Z,2.50
2017-11-26T03:11:39.786Z,2.50
2017-11-26T03:14:08.127Z,2.50
2017-11-26T03:16:36.418Z,2.60
2017-11-26T03:19:04.894Z,2.60
2017-11-26T03:21:33.294Z,2.60
2017-11-26T03:24:02.410Z,2.70
2017-11-26T03:26:30.739Z,2.70
2017-11-26T03:28:59.103Z,2.70
2017-11-26T03:31:27.387Z,2.80
2017-11-26T03:33:55.705Z,2.80
2017-11-26T03:36:24.024Z,2.80
2017-11-26T03:38:52.331Z,2.80
2017-11-26T03:41:21.370Z,2.90
2017-11-26T03:43:49.734Z,2.90
2017-11-26T03:46:18.799Z,2.90
2017-11-26T03:48:47.882Z,2.90
2017-11-26T03:51:16.976Z,3.00
2017-11-26T03:53:45.349Z,2.90
2017-11-26T03:56:13.639Z,3.00
2017-11-26T03:58:41.967Z,2.90
2017-11-26T04:01:10.263Z,2.90
2017-11-26T04:03:39.326Z,2.90
2017-11-26T04:06:08.421Z,2.90
2017-11-26T04:08:36.718Z,2.90
2017-11-26T04:11:05.019Z,2.90
2017-11-26T04:13:33.938Z,3.00
2017-11-26T04:16:03.149Z,3.00
2017-11-26T04:18:31.563Z,3.00
2017-11-26T04:20:59.899Z,2.90
2017-11-26T04:23:28.230Z,2.90
2017-11-26T04:25:56.541Z,2.90
2017-11-26T04:28:25.645Z,3.00
2017-11-26T04:30:53.961Z,2.90
2017-11-26T04:33:22.280Z,3.00
2017-11-26T04:35:50.657Z,3.00
2017-11-26T04:38:18.960Z,3.00
2017-11-26T04:40:47.243Z,3.00
2017-11-26T04:43:15.601Z,2.90
2017-11-26T04:45:43.911Z,2.90
2017-11-26T04:48:12.194Z,2.90
2017-11-26T04:50:40.520Z,2.80
2017-11-26T04:53:08.825Z,2.80
2017-11-26T04:55:37.184Z,2.80
2017-11-26T04:58:05.484Z,2.80
2017-11-26T05:00:34.586Z,2.70
2017-11-26T05:03:03.835Z,2.60
2017-11-26T05:05:33.251Z,2.60
2017-11-26T05:08:01.557Z,2.60
2017-11-26T05:10:30.685Z,2.50
2017-11-26T05:12:58.990Z,2.40
2017-11-26T05:15:27.274Z,2.50
2017-11-26T05:17:55.633Z,2.40
2017-11-26T05:20:24.044Z,2.40
2017-11-26T05:22:52.414Z,2.40
2017-11-26T05:25:20.800Z,2.40
2017-11-26T05:27:49.426Z,2.40
2017-11-26T05:30:17.729Z,2.30
2017-11-26T05:32:46.070Z,2.30
2017-11-26T05:35:14.417Z,2.40
2017-11-26T05:40:18.454Z,2.30
2017-11-26T05:42:46.774Z,2.30
2017-11-26T05:45:15.082Z,2.40
2017-11-26T05:47:44.554Z,2.30
2017-11-26T05:50:12.894Z,2.40
2017-11-26T05:52:41.990Z,2.40
2017-11-26T05:55:10.499Z,2.30
2017-11-26T05:57:38.828Z,2.40
2017-11-26T06:00:07.934Z,2.30
2017-11-26T06:05:15.289Z,2.30
2017-11-26T06:07:43.736Z,2.30
2017-11-26T06:10:12.933Z,2.40
2017-11-26T06:12:42.627Z,2.40
2017-11-26T06:15:12.545Z,2.30
2017-11-26T06:17:40.872Z,2.30
2017-11-26T06:20:09.978Z,2.30
2017-11-26T06:22:39.077Z,2.30
2017-11-26T06:25:07.408Z,2.30
2017-11-26T06:27:35.767Z,2.30
2017-11-26T06:30:04.102Z,2.40
2017-11-26T06:32:32.441Z,2.30
2017-11-26T06:35:01.699Z,2.30
2017-11-26T06:37:30.790Z,2.30
2017-11-26T06:39:59.150Z,2.30
2017-11-26T06:42:34.482Z,2.30
2017-11-26T06:47:42.042Z,2.30
2017-11-26T06:50:10.362Z,2.40
2017-11-26T06:55:17.802Z,2.30
2017-11-26T06:57:46.871Z,2.30
2017-11-26T07:00:15.199Z,2.30
2017-11-26T07:02:43.538Z,2.30
2017-11-26T07:05:11.862Z,2.40
2017-11-26T07:10:20.113Z,2.30
2017-11-26T07:12:55.582Z,2.30
2017-11-26T07:15:23.926Z,2.30
2017-11-26T07:17:52.231Z,2.30
2017-11-26T07:20:20.646Z,2.30
2017-11-26T07:22:48.972Z,2.40
2017-11-26T07:25:17.330Z,2.30
2017-11-26T07:27:46.439Z,2.40
2017-11-26T07:30:14.762Z,2.40
2017-11-26T07:32:44.011Z,2.50
2017-11-26T07:35:12.896Z,2.50
2017-11-26T07:37:41.838Z,2.60
2017-11-26T07:40:10.328Z,2.60
2017-11-26T07:42:38.659Z,2.60
2017-11-26T07:45:07.023Z,2.70
2017-11-26T07:47:35.405Z,2.70
2017-11-26T07:50:03.830Z,2.90
2017-11-26T07:52:32.139Z,3.00
2017-11-26T07:55:00.473Z,3.10
2017-11-26T07:57:29.542Z,3.40
2017-11-26T07:59:58.670Z,3.60
2017-11-26T08:02:26.962Z,3.50
2017-11-26T08:04:55.291Z,3.80
2017-11-26T08:07:23.637Z,4.00
2017-11-26T08:09:51.939Z,4.20
2017-11-26T08:12:20.241Z,4.30
2017-11-26T08:14:48.607Z,4.50
2017-11-26T08:17:16.967Z,4.60
2017-11-26T08:19:45.257Z,4.80
2017-11-26T08:22:13.566Z,5.00
2017-11-26T08:24:42.724Z,4.90
2017-11-26T08:27:11.877Z,4.80
2017-11-26T08:29:40.218Z,4.70
2017-11-26T08:32:08.558Z,4.70
2017-11-26T08:34:36.899Z,4.60
2017-11-26T08:37:05.242Z,4.40
2017-11-26T08:39:33.553Z,4.30
2017-11-26T08:42:01.896Z,4.20
2017-11-26T08:44:30.195Z,4.10
2017-11-26T08:46:58.520Z,4.00
2017-11-26T08:49:26.807Z,3.90
2017-11-26T08:51:55.125Z,3.90
2017-11-26T08:54:23.441Z,3.80
2017-11-26T08:56:51.721Z,3.80
2017-11-26T08:59:20.073Z,3.80
2017-11-26T09:01:48.409Z,3.80
2017-11-26T09:04:16.719Z,3.80
2017-11-26T09:20:25.389Z,3.90
2017-11-26T09:22:54.569Z,3.80
2017-11-26T09:25:27.620Z,3.90
2017-11-26T09:27:57.224Z,4.00
2017-11-26T09:30:26.314Z,4.00
2017-11-26T09:32:56.174Z,4.00
2017-11-26T09:35:24.494Z,4.00
2017-11-26T09:37:52.822Z,4.00
2017-11-26T09:40:21.175Z,4.10
2017-11-26T09:42:50.389Z,4.10
2017-11-26T09:45:18.732Z,4.10
2017-11-26T09:47:47.058Z,4.00
2017-11-26T09:50:15.413Z,4.00
2017-11-26T09:52:43.701Z,4.00
2017-11-26T09:55:12.021Z,4.00
2017-11-26T09:57:40.339Z,4.00
2017-11-26T10:00:09.446Z,4.10
2017-11-26T10:02:37.767Z,4.00
2017-11-26T10:05:06.080Z,4.00
2017-11-26T10:07:34.406Z,4.00
2017-11-26T10:10:02.702Z,4.00
2017-11-26T10:12:31.846Z,4.00
2017-11-26T10:15:00.218Z,4.00
2017-11-26T10:17:29.456Z,4.00
2017-11-26T10:19:57.749Z,4.00
2017-11-26T10:22:26.098Z,4.00
2017-11-26T10:24:54.394Z,4.10
2017-11-26T10:27:22.692Z,4.00
2017-11-26T10:29:51.105Z,4.10
2017-11-26T10:32:20.186Z,4.10
2017-11-26T10:34:48.693Z,4.10
2017-11-26T10:37:17.011Z,4.20
2017-11-26T10:39:45.296Z,4.20
2017-11-26T10:42:13.581Z,4.20
2017-11-26T10:44:42.750Z,4.20
2017-11-26T10:47:11.045Z,4.20
2017-11-26T10:49:39.342Z,4.20
2017-11-26T10:52:07.668Z,4.10
2017-11-26T10:54:35.964Z,4.10
2017-11-26T10:57:04.301Z,4.20
2017-11-26T10:59:32.614Z,4.20
2017-11-26T11:02:01.668Z,4.20
2017-11-26T11:04:30.015Z,4.20
2017-11-26T11:06:58.319Z,4.20
2017-11-26T11:09:26.618Z,4.20
2017-11-26T11:11:55.036Z,4.20
2017-11-26T11:14:23.332Z,4.30
2017-11-26T11:16:52.654Z,4.30
2017-11-26T11:19:20.946Z,4.30
2017-11-26T11:21:49.251Z,4.30
2017-11-26T11:24:18.020Z,4.30
2017-11-26T11:26:46.351Z,4.30
2017-11-26T11:29:14.671Z,4.40
2017-11-26T11:31:42.964Z,4.30
2017-11-26T11:34:11.428Z,4.30
2017-11-26T11:36:39.744Z,4.30
2017-11-26T11:39:08.042Z,4.30
2017-11-26T11:41:36.405Z,4.30
2017-11-26T11:44:05.506Z,4.40
2017-11-26T11:46:33.796Z,4.40
2017-11-26T11:49:02.111Z,4.40
2017-11-26T11:51:30.422Z,4.50
2017-11-26T11:53:58.810Z,4.60
2017-11-26T11:56:27.138Z,4.60
2017-11-26T11:58:55.453Z,4.50
2017-11-26T12:01:23.830Z,4.50
2017-11-26T12:03:52.927Z,4.50
2017-11-26T12:06:21.225Z,4.50
2017-11-26T12:08:49.561Z,4.50
2017-11-26T12:11:17.893Z,4.50
2017-11-26T12:13:46.177Z,4.50
2017-11-26T12:16:15.235Z,4.40
2017-11-26T12:18:43.562Z,4.50
2017-11-26T12:21:11.883Z,4.40
2017-11-26T12:23:40.401Z,4.40
2017-11-26T12:26:08.697Z,4.40
2017-11-26T12:28:37.885Z,4.30
2017-11-26T12:31:06.959Z,4.40
2017-11-26T12:33:35.436Z,4.40
2017-11-26T12:36:04.528Z,4.50
2017-11-26T12:38:32.836Z,4.50
2017-11-26T12:41:01.135Z,4.60
2017-11-26T12:43:29.478Z,4.60
2017-11-26T12:45:57.777Z,4.70
2017-11-26T12:48:26.128Z,4.70
2017-11-26T12:50:55.235Z,4.70
2017-11-26T12:53:23.536Z,4.70
2017-11-26T12:55:51.919Z,4.70
2017-11-26T12:58:21.018Z,4.70
2017-11-26T13:00:49.371Z,4.70
2017-11-26T13:03:17.692Z,4.70
2017-11-26T13:05:46.197Z,4.70
2017-11-26T13:08:15.275Z,4.60
2017-11-26T13:10:44.366Z,4.60
2017-11-26T13:13:12.753Z,4.60
2017-11-26T13:15:41.034Z,4.70
2017-11-26T13:18:10.119Z,4.70
2017-11-26T13:20:39.291Z,4.70
2017-11-26T13:23:07.730Z,4.70
2017-11-26T13:25:36.174Z,4.70
2017-11-26T13:28:04.855Z,4.70
2017-11-26T13:30:33.491Z,4.80
2017-11-26T13:33:02.576Z,4.90
2017-11-26T13:35:31.700Z,4.80
2017-11-26T13:38:00.004Z,4.80
2017-11-26T13:40:29.062Z,4.80
2017-11-26T13:42:58.222Z,4.80
2017-11-26T13:45:26.629Z,4.70
2017-11-26T13:47:54.978Z,4.80
2017-11-26T13:50:23.272Z,4.70
2017-11-26T13:52:51.570Z,4.70
2017-11-26T13:55:19.912Z,4.70
2017-11-26T13:57:48.218Z,4.70
2017-11-26T14:00:16.590Z,4.60
2017-11-26T14:02:44.928Z,4.60
2017-11-26T14:05:14.193Z,4.70
2017-11-26T14:07:43.355Z,4.60
2017-11-26T14:10:11.650Z,4.60
2017-11-26T14:12:39.985Z,4.60
2017-11-26T14:15:09.088Z,4.70
2017-11-26T14:17:37.707Z,4.70
2017-11-26T14:20:05.991Z,4.70
2017-11-26T14:22:34.426Z,4.60
2017-11-26T14:25:02.739Z,4.70
2017-11-26T14:27:31.028Z,4.70
2017-11-26T14:29:59.352Z,4.70
2017-11-26T14:32:27.646Z,4.80
2017-11-26T14:34:55.959Z,4.70
2017-11-26T14:37:24.286Z,4.70
2017-11-26T14:39:52.581Z,4.70
2017-11-26T14:42:20.874Z,4.70
2017-11-26T14:44:49.271Z,4.70
2017-11-26T14:47:17.558Z,4.70
2017-11-26T14:49:46.645Z,4.80
2017-11-26T14:52:15.007Z,4.70
2017-11-26T14:54:43.345Z,4.70
2017-11-26T14:57:11.633Z,4.70
2017-11-26T14:59:39.962Z,4.70
2017-11-26T15:02:08.707Z,4.80
2017-11-26T15:04:37.008Z,4.70
2017-11-26T15:07:06.106Z,4.70
2017-11-26T15:09:34.404Z,4.70
2017-11-26T15:12:02.764Z,4.70
2017-11-26T15:14:31.108Z,4.70
2017-11-26T15:16:59.399Z,4.70
2017-11-26T15:19:27.715Z,4.70
2017-11-26T15:21:56.819Z,4.70
2017-11-26T15:24:25.130Z,4.70
2017-11-26T15:26:54.207Z,4.60
2017-11-26T15:29:22.560Z,4.60
2017-11-26T15:31:50.871Z,4.70
2017-11-26T15:34:19.197Z,4.70
2017-11-26T15:36:47.487Z,4.60
2017-11-26T15:39:15.787Z,4.60
2017-11-26T15:41:44.123Z,4.60
2017-11-26T15:44:13.213Z,4.60
2017-11-26T15:46:41.564Z,4.60
2017-11-26T15:49:09.869Z,4.50
2017-11-26T15:51:38.198Z,4.50
2017-11-26T15:54:07.861Z,4.40
2017-11-26T15:56:36.203Z,4.40
2017-11-26T15:59:05.349Z,4.40
2017-11-26T16:01:33.652Z,4.30
2017-11-26T16:04:01.982Z,4.30
2017-11-26T16:06:31.057Z,4.20
2017-11-26T16:09:00.162Z,4.20
2017-11-26T16:11:28.471Z,4.20
2017-11-26T16:13:57.530Z,4.20
2017-11-26T16:16:25.860Z,4.20
2017-11-26T16:18:54.173Z,4.20
2017-11-26T16:21:22.509Z,4.20
2017-11-26T16:23:50.833Z,4.20
2017-11-26T16:26:19.162Z,4.20
2017-11-26T16:28:47.474Z,4.20
2017-11-26T16:31:15.781Z,4.30
2017-11-26T16:33:44.078Z,4.20
2017-11-26T16:36:12.430Z,4.20
2017-11-26T16:38:40.766Z,4.20
2017-11-26T16:41:09.902Z,4.20
2017-11-26T16:43:38.411Z,4.20
2017-11-26T16:46:06.693Z,4.20
2017-11-26T16:48:35.054Z,4.30
2017-11-26T16:51:04.138Z,4.30
2017-11-26T16:53:32.442Z,4.20
2017-11-26T16:56:00.792Z,4.30
2017-11-26T16:58:29.082Z,4.20
2017-11-26T17:00:57.441Z,4.20
2017-11-26T17:03:26.536Z,4.20
2017-11-26T17:05:54.831Z,4.10
2017-11-26T17:08:23.883Z,4.20
2017-11-26T17:10:52.211Z,4.20
2017-11-26T17:13:20.528Z,4.20
2017-11-26T17:15:49.832Z,4.10
2017-11-26T17:18:18.170Z,4.10
2017-11-26T17:20:46.502Z,4.10
2017-11-26T17:23:14.850Z,4.10
2017-11-26T17:25:43.189Z,4.00
2017-11-26T17:28:12.296Z,4.00
2017-11-26T17:30:40.616Z,4.00
2017-11-26T17:33:08.925Z,3.90
2017-11-26T17:35:38.011Z,3.90
2017-11-26T17:38:07.822Z,3.90
2017-11-26T17:40:36.097Z,3.90
2017-11-26T17:43:05.693Z,3.90
2017-11-26T17:45:33.987Z,3.80
2017-11-26T17:48:02.276Z,3.80
2017-11-26T17:50:30.601Z,3.80
2017-11-26T17:52:59.750Z,3.70
2017-11-26T17:55:28.129Z,3.80
2017-11-26T17:57:57.198Z,3.70
2017-11-26T18:00:25.514Z,3.70
2017-11-26T18:02:53.837Z,3.70
2017-11-26T18:05:22.908Z,3.70
2017-11-26T18:07:52.010Z,3.60
2017-11-26T18:10:20.347Z,3.60
2017-11-26T18:12:49.404Z,3.60
2017-11-26T18:15:19.158Z,3.60
2017-11-26T18:17:47.653Z,3.60
2017-11-26T18:20:16.004Z,3.60
2017-11-26T18:22:44.328Z,3.50
2017-11-26T18:25:13.420Z,3.50
2017-11-26T18:27:41.754Z,3.40
2017-11-26T18:30:10.931Z,3.40
2017-11-26T18:32:40.148Z,3.40
2017-11-26T18:35:08.436Z,3.40
2017-11-26T18:37:36.776Z,3.40
2017-11-26T18:40:05.117Z,3.40
2017-11-26T18:42:33.405Z,3.30
2017-11-26T18:45:01.808Z,3.30
2017-11-26T18:47:31.102Z,3.40
2017-11-26T18:50:06.109Z,3.40
2017-11-26T18:52:35.959Z,3.40
2017-11-26T18:55:05.829Z,3.40
2017-11-26T18:57:34.113Z,3.50
2017-11-26T19:00:02.412Z,3.40
2017-11-26T19:02:50.433Z,3.50
2017-11-26T19:05:18.732Z,3.50
2017-11-26T19:07:47.054Z,3.60
2017-11-26T19:10:15.395Z,3.60
2017-11-26T19:12:44.488Z,3.50
2017-11-26T19:15:44.157Z,3.50
2017-11-26T19:18:12.461Z,3.60
2017-11-26T19:20:40.770Z,3.50
2017-11-26T19:23:09.106Z,3.60
2017-11-26T19:25:39.513Z,3.60
2017-11-26T19:28:07.846Z,3.60
2017-11-26T19:30:36.899Z,3.70
2017-11-26T19:33:05.689Z,3.60
2017-11-26T19:35:33.973Z,3.60
2017-11-26T19:38:03.179Z,3.60
2017-11-26T19:40:31.537Z,3.60
2017-11-26T19:42:59.889Z,3.60
2017-11-26T19:45:35.519Z,3.60
2017-11-26T19:48:05.455Z,3.60
2017-11-26T19:50:33.766Z,3.70
2017-11-26T19:53:07.365Z,3.60
2017-11-26T19:55:35.702Z,3.70
2017-11-26T19:58:05.710Z,3.60
2017-11-26T20:00:34.054Z,3.70
2017-11-26T20:03:02.373Z,3.70
2017-11-26T20:05:31.507Z,3.80
2017-11-26T20:07:59.820Z,3.70
2017-11-26T20:10:28.997Z,3.80
2017-11-26T20:12:57.339Z,3.80
2017-11-26T20:15:25.633Z,3.80
2017-11-26T20:17:57.221Z,3.80
2017-11-26T20:20:25.506Z,3.80
2017-11-26T20:22:53.800Z,3.80
2017-11-26T20:25:22.149Z,3.80
2017-11-26T20:27:50.414Z,3.80
2017-11-26T20:30:18.707Z,3.90
2017-11-26T20:32:47.010Z,3.90
2017-11-26T20:35:16.231Z,3.90
2017-11-26T20:37:44.549Z,3.90
2017-11-26T20:40:12.867Z,3.90
2017-11-26T20:42:41.163Z,3.90
2017-11-26T20:45:09.464Z,3.90
2017-11-26T20:47:37.878Z,3.80
2017-11-26T20:50:07.233Z,3.80
2017-11-26T20:52:36.318Z,3.90
2017-11-26T20:55:04.624Z,3.80
2017-11-26T20:57:33.906Z,3.80
2017-11-26T21:00:02.204Z,3.80
2017-11-26T21:02:35.555Z,3.80
2017-11-26T21:05:04.963Z,3.80
2017-11-26T21:07:34.104Z,3.80
2017-11-26T21:10:02.390Z,3.80
2017-11-26T21:12:30.689Z,3.90
2017-11-26T21:14:59.009Z,3.80
2017-11-26T21:17:27.295Z,3.80
2017-11-26T21:19:55.575Z,3.90
2017-11-26T21:22:24.666Z,3.90
2017-11-26T21:24:53.759Z,3.90
2017-11-26T21:27:22.044Z,3.80
2017-11-26T21:29:51.409Z,3.80
2017-11-26T21:32:19.716Z,3.80
2017-11-26T21:34:48.044Z,3.80
2017-11-26T21:37:16.347Z,3.80
2017-11-26T21:39:46.689Z,3.80
2017-11-26T21:42:15.045Z,3.80
2017-11-26T21:44:44.112Z,3.80
2017-11-26T21:47:12.384Z,3.80
2017-11-26T21:49:40.997Z,3.80
2017-11-26T21:52:09.373Z,3.80
2017-11-26T21:54:44.419Z,3.80
2017-11-26T21:57:14.518Z,3.80
2017-11-26T21:59:42.821Z,3.80
2017-11-26T22:02:23.622Z,3.80
2017-11-26T22:04:51.921Z,3.80
2017-11-26T22:07:20.245Z,3.80
2017-11-26T22:09:50.483Z,3.80
2017-11-26T22:12:24.960Z,3.80
2017-11-26T22:14:53.314Z,3.80
2017-11-26T22:17:21.615Z,3.80
2017-11-26T22:19:50.684Z,3.80
2017-11-26T22:22:19.006Z,3.80
2017-11-26T22:24:48.232Z,3.80
2017-11-26T22:27:16.597Z,3.80
2017-11-26T22:29:45.676Z,3.80
2017-11-26T22:32:15.661Z,3.80
2017-11-26T22:34:44.649Z,3.70
2017-11-26T22:37:12.960Z,3.80
2017-11-26T22:39:41.263Z,3.70
2017-11-26T22:42:09.569Z,3.80
2017-11-26T22:44:38.793Z,3.70
2017-11-26T22:47:07.961Z,3.70
2017-11-26T22:49:36.263Z,3.70
2017-11-26T22:52:06.469Z,3.70
2017-11-26T22:54:34.755Z,3.70
2017-11-26T22:57:07.266Z,3.70
2017-11-26T22:59:38.957Z,3.70
2017-11-26T23:02:07.290Z,3.70
2017-11-26T23:04:45.042Z,3.70
2017-11-26T23:07:13.364Z,3.70
2017-11-26T23:09:41.646Z,3.70
2017-11-26T23:12:09.985Z,3.70
2017-11-26T23:14:39.119Z,3.70
2017-11-26T23:17:07.486Z,3.60
2017-11-26T23:19:35.809Z,3.70
2017-11-26T23:22:04.124Z,3.70
2017-11-26T23:24:33.318Z,3.70
2017-11-26T23:27:02.400Z,3.70
2017-11-26T23:29:31.505Z,3.60
2017-11-26T23:31:59.854Z,3.60
2017-11-26T23:34:28.172Z,3.60
2017-11-26T23:36:56.485Z,3.60
2017-11-26T23:39:24.820Z,3.60
2017-11-26T23:41:53.099Z,3.60
2017-11-26T23:44:21.392Z,3.60
2017-11-26T23:46:49.713Z,3.60
2017-11-26T23:49:18.792Z,3.60
2017-11-26T23:51:47.097Z,3.60
2017-11-26T23:54:15.401Z,3.60
2017-11-26T23:56:43.751Z,3.60
2017-11-26T23:59:12.078Z,3.60
